createdAt,value
2022-08-20T00:01:02.559Z,2.37
2022-08-20T00:03:40.931Z,2.33
2022-08-20T00:06:17.344Z,4.00
2022-08-20T00:08:47.922Z,2.83
2022-08-20T00:11:20.098Z,2.63
2022-08-20T00:13:55.608Z,2.20
2022-08-20T00:16:35.093Z,2.30
2022-08-20T00:19:09.396Z,2.70
2022-08-20T00:21:39.615Z,2.40
2022-08-20T00:24:09.896Z,2.23
2022-08-20T00:26:51.949Z,2.40
2022-08-20T00:29:22.320Z,2.00
2022-08-20T00:31:52.350Z,2.13
2022-08-20T00:34:24.019Z,3.03
2022-08-20T00:36:55.056Z,2.27
2022-08-20T00:39:27.416Z,1.80
2022-08-20T00:41:59.882Z,1.90
2022-08-20T00:44:32.499Z,2.23
2022-08-20T00:47:05.451Z,2.73
2022-08-20T00:49:37.250Z,1.90
2022-08-20T00:52:15.909Z,1.50
2022-08-20T00:54:53.720Z,2.33
2022-08-20T00:57:26.018Z,2.30
2022-08-20T00:59:54.360Z,1.97
2022-08-20T01:02:28.359Z,1.77
2022-08-20T01:04:59.208Z,3.20
2022-08-20T01:07:50.451Z,1.73
2022-08-20T01:10:25.065Z,2.03
2022-08-20T01:13:01.207Z,2.10
2022-08-20T01:15:35.050Z,1.67
2022-08-20T01:18:06.031Z,1.60
2022-08-20T01:20:39.635Z,1.70
2022-08-20T01:23:41.580Z,1.73
2022-08-20T01:26:11.423Z,1.63
2022-08-20T01:28:52.866Z,1.70
2022-08-20T01:31:28.480Z,1.70
2022-08-20T01:34:00.254Z,1.43
2022-08-20T01:36:33.121Z,1.67
2022-08-20T01:39:01.852Z,1.50
2022-08-20T01:41:41.444Z,2.07
2022-08-20T01:44:16.913Z,2.03
2022-08-20T01:46:52.544Z,1.60
2022-08-20T01:52:11.313Z,1.53
2022-08-20T01:57:28.013Z,1.43
2022-08-20T01:59:56.266Z,1.90
2022-08-20T02:02:29.866Z,1.63
2022-08-20T02:05:00.963Z,1.80
2022-08-20T02:07:35.240Z,1.43
2022-08-20T02:10:10.050Z,2.63
2022-08-20T02:12:42.517Z,1.60
2022-08-20T02:15:13.715Z,2.57
2022-08-20T02:17:45.881Z,2.23
2022-08-20T02:20:35.612Z,1.50
2022-08-20T02:23:07.999Z,1.70
2022-08-20T02:25:36.539Z,1.33
2022-08-20T02:28:08.474Z,1.50
2022-08-20T02:30:39.575Z,2.20
2022-08-20T02:33:12.372Z,2.03
2022-08-20T02:35:44.930Z,1.63
2022-08-20T02:38:16.776Z,1.53
2022-08-20T02:40:49.275Z,1.73
2022-08-20T02:43:19.135Z,2.23
2022-08-20T02:45:48.185Z,1.80
2022-08-20T02:48:34.076Z,2.07
2022-08-20T02:51:10.518Z,1.60
2022-08-20T02:56:44.774Z,1.97
2022-08-20T02:59:19.852Z,2.50
2022-08-20T03:01:59.964Z,1.67
2022-08-20T03:04:31.103Z,2.00
2022-08-20T03:07:03.217Z,1.53
2022-08-20T03:09:31.962Z,1.37
2022-08-20T03:12:01.314Z,1.23
2022-08-20T03:14:32.572Z,1.70
2022-08-20T03:17:03.715Z,1.53
2022-08-20T03:19:35.060Z,1.37
2022-08-20T03:22:08.458Z,1.50
2022-08-20T03:24:42.126Z,1.50
2022-08-20T03:27:12.400Z,1.53
2022-08-20T03:29:43.062Z,1.77
2022-08-20T03:32:10.428Z,1.50
2022-08-20T03:34:41.990Z,3.83
2022-08-20T03:37:17.704Z,1.50
2022-08-20T03:39:50.293Z,1.60
2022-08-20T03:42:21.768Z,1.73
2022-08-20T03:44:58.974Z,2.10
2022-08-20T03:47:28.004Z,1.30
2022-08-20T03:50:02.070Z,1.90
2022-08-20T03:52:32.263Z,1.90
2022-08-20T03:55:01.006Z,1.40
2022-08-20T03:57:34.810Z,1.87
2022-08-20T04:00:07.213Z,1.50
2022-08-20T04:02:38.190Z,1.67
2022-08-20T04:05:09.191Z,2.30
2022-08-20T04:07:41.554Z,1.67
2022-08-20T04:10:16.370Z,1.60
2022-08-20T04:12:52.955Z,1.67
2022-08-20T04:15:30.562Z,1.50
2022-08-20T04:18:04.320Z,1.57
2022-08-20T04:20:37.027Z,2.07
2022-08-20T04:23:11.621Z,1.70
2022-08-20T04:25:48.828Z,1.70
2022-08-20T04:28:29.294Z,2.30
2022-08-20T04:30:59.693Z,1.80
2022-08-20T04:33:54.506Z,2.20
2022-08-20T04:36:25.482Z,2.47
2022-08-20T04:38:55.940Z,1.70
2022-08-20T04:41:25.606Z,2.03
2022-08-20T04:44:04.472Z,1.67
2022-08-20T04:46:34.343Z,1.57
2022-08-20T04:49:09.552Z,3.30
2022-08-20T04:51:40.067Z,2.17
2022-08-20T04:54:10.549Z,1.70
2022-08-20T04:56:42.790Z,1.73
2022-08-20T04:59:12.052Z,2.23
2022-08-20T05:01:48.231Z,2.23
2022-08-20T05:04:20.255Z,2.73
2022-08-20T05:06:52.423Z,3.93
2022-08-20T05:09:27.089Z,4.80
2022-08-20T05:11:58.810Z,6.40
2022-08-20T05:14:29.446Z,5.70
2022-08-20T05:17:08.963Z,7.37
2022-08-20T05:19:43.119Z,8.23
2022-08-20T05:22:13.675Z,7.20
2022-08-20T05:24:49.767Z,9.37
2022-08-20T05:27:24.966Z,9.63
2022-08-20T05:29:58.135Z,10.53
2022-08-20T05:32:30.481Z,11.03
2022-08-20T05:34:58.992Z,12.00
2022-08-20T05:37:32.520Z,12.17
2022-08-20T05:40:03.932Z,11.43
2022-08-20T05:42:36.377Z,13.50
2022-08-20T05:45:14.369Z,11.47
2022-08-20T05:47:43.130Z,11.13
2022-08-20T05:50:20.741Z,14.40
2022-08-20T05:52:53.345Z,14.60
2022-08-20T05:55:31.995Z,18.63
2022-08-20T05:58:02.485Z,16.03
2022-08-20T06:00:39.297Z,17.53
2022-08-20T06:03:27.885Z,17.63
2022-08-20T06:05:58.124Z,16.90
2022-08-20T06:08:32.083Z,17.60
2022-08-20T06:11:00.654Z,18.63
2022-08-20T06:13:30.960Z,21.93
2022-08-20T06:16:01.430Z,18.07
2022-08-20T06:18:34.232Z,22.30
2022-08-20T06:21:06.620Z,23.47
2022-08-20T06:23:54.301Z,18.80
2022-08-20T06:26:30.777Z,17.03
2022-08-20T06:29:03.301Z,16.90
2022-08-20T06:31:39.838Z,21.30
2022-08-20T06:34:11.637Z,18.50
2022-08-20T06:36:43.226Z,19.33
2022-08-20T06:39:14.169Z,19.27
2022-08-20T06:42:04.473Z,18.20
2022-08-20T06:44:41.994Z,21.53
2022-08-20T06:47:13.376Z,18.80
2022-08-20T06:49:43.906Z,20.03
2022-08-20T06:52:11.709Z,20.60
2022-08-20T06:54:40.680Z,18.27
2022-08-20T06:57:10.089Z,18.70
2022-08-20T06:59:41.396Z,19.33
2022-08-20T07:02:12.252Z,22.97
2022-08-20T07:04:45.869Z,21.23
2022-08-20T07:10:03.468Z,22.03
2022-08-20T07:12:35.060Z,19.00
2022-08-20T07:15:08.753Z,18.87
2022-08-20T07:17:38.291Z,21.17
2022-08-20T07:20:13.475Z,19.10
2022-08-20T07:22:42.596Z,19.90
2022-08-20T07:25:19.251Z,24.33
2022-08-20T07:27:48.603Z,20.83
2022-08-20T07:30:55.979Z,20.77
2022-08-20T07:33:29.943Z,24.20
2022-08-20T07:36:03.530Z,23.60
2022-08-20T07:38:36.423Z,21.67
2022-08-20T07:41:08.683Z,23.07
2022-08-20T07:43:37.209Z,20.90
2022-08-20T07:46:09.200Z,20.80
2022-08-20T07:48:42.356Z,22.77
2022-08-20T07:51:14.549Z,19.73
2022-08-20T07:53:46.265Z,20.83
2022-08-20T07:56:20.142Z,17.40
2022-08-20T07:58:59.633Z,20.90
2022-08-20T08:01:29.810Z,22.60
2022-08-20T08:04:03.230Z,19.67
2022-08-20T08:06:34.787Z,18.83
2022-08-20T08:09:09.858Z,25.00
2022-08-20T08:11:49.797Z,20.77
2022-08-20T08:14:27.120Z,19.33
2022-08-20T08:17:09.292Z,19.37
2022-08-20T08:19:40.221Z,21.17
2022-08-20T08:22:17.243Z,20.47
2022-08-20T08:24:59.241Z,18.87
2022-08-20T08:27:54.379Z,20.73
2022-08-20T08:30:26.611Z,17.83
2022-08-20T08:33:14.687Z,21.20
2022-08-20T08:35:52.868Z,18.83
2022-08-20T08:38:29.215Z,17.87
2022-08-20T08:41:00.863Z,17.10
2022-08-20T08:43:31.681Z,22.40
2022-08-20T08:46:06.380Z,18.73
2022-08-20T08:48:48.895Z,20.63
2022-08-20T08:51:23.235Z,21.60
2022-08-20T08:54:06.626Z,19.17
2022-08-20T08:56:43.594Z,19.33
2022-08-20T08:59:28.271Z,21.07
2022-08-20T09:02:31.013Z,20.07
2022-08-20T09:05:05.074Z,21.20
2022-08-20T09:07:35.190Z,24.23
2022-08-20T09:10:13.559Z,20.07
2022-08-20T09:12:47.612Z,20.30
2022-08-20T09:15:21.092Z,18.37
2022-08-20T09:17:53.090Z,18.13
2022-08-20T09:20:27.192Z,17.03
2022-08-20T09:23:02.499Z,17.17
2022-08-20T09:25:34.118Z,17.83
2022-08-20T09:28:04.175Z,15.03
2022-08-20T09:30:39.564Z,16.67
2022-08-20T09:33:07.182Z,18.10
2022-08-20T09:35:40.542Z,14.43
2022-08-20T09:38:09.293Z,12.83
2022-08-20T09:40:42.256Z,15.30
2022-08-20T09:43:15.683Z,14.67
2022-08-20T09:45:48.247Z,16.63
2022-08-20T09:48:21.154Z,16.97
2022-08-20T09:51:02.207Z,14.40
2022-08-20T09:53:35.564Z,12.67
2022-08-20T09:56:14.669Z,14.03
2022-08-20T09:59:03.895Z,12.97
2022-08-20T10:01:35.730Z,12.60
2022-08-20T10:04:10.202Z,11.40
2022-08-20T10:06:45.884Z,13.20
2022-08-20T10:09:16.243Z,12.60
2022-08-20T10:11:45.702Z,15.10
2022-08-20T10:14:17.074Z,13.83
2022-08-20T10:16:47.532Z,14.03
2022-08-20T10:19:18.731Z,13.43
2022-08-20T10:21:53.585Z,12.07
2022-08-20T10:27:05.887Z,10.47
2022-08-20T10:29:34.880Z,9.47
2022-08-20T10:32:19.923Z,8.23
2022-08-20T10:34:54.467Z,9.63
2022-08-20T10:37:30.298Z,11.50
2022-08-20T10:40:02.158Z,10.40
2022-08-20T10:42:33.335Z,10.67
2022-08-20T10:45:04.201Z,9.90
2022-08-20T10:47:35.382Z,9.67
2022-08-20T10:52:52.400Z,8.13
2022-08-20T10:55:28.781Z,6.37
2022-08-20T10:57:56.362Z,13.67
2022-08-20T11:00:26.183Z,6.27
2022-08-20T11:02:57.836Z,7.60
2022-08-20T11:05:31.461Z,8.17
2022-08-20T11:08:01.964Z,6.10
2022-08-20T11:10:37.352Z,4.10
2022-08-20T11:13:08.930Z,5.37
2022-08-20T11:15:38.907Z,6.73
2022-08-20T11:18:12.953Z,6.23
2022-08-20T11:20:42.397Z,6.10
2022-08-20T11:23:12.918Z,6.70
2022-08-20T11:25:45.370Z,5.77
2022-08-20T11:28:30.882Z,6.13
2022-08-20T11:31:04.815Z,8.57
2022-08-20T11:33:35.623Z,9.00
2022-08-20T11:36:08.735Z,7.15
2022-08-20T11:38:39.493Z,6.33
2022-08-20T11:41:09.616Z,5.47
2022-08-20T11:43:40.628Z,4.80
2022-08-20T11:46:08.102Z,6.80
2022-08-20T11:48:36.924Z,6.57
2022-08-20T11:51:07.644Z,6.60
2022-08-20T11:53:38.085Z,5.77
2022-08-20T11:56:09.348Z,6.47
2022-08-20T11:58:58.254Z,5.70
2022-08-20T12:01:30.987Z,5.23
2022-08-20T12:03:59.858Z,6.27
2022-08-20T12:06:29.153Z,8.53
2022-08-20T12:11:45.946Z,3.87
2022-08-20T12:14:19.447Z,6.70
2022-08-20T12:16:49.272Z,5.00
2022-08-20T12:19:24.060Z,6.73
2022-08-20T12:21:56.242Z,5.47
2022-08-20T12:24:27.314Z,5.97
2022-08-20T12:26:56.823Z,5.53
2022-08-20T12:29:41.595Z,7.30
2022-08-20T12:32:12.268Z,7.23
2022-08-20T12:34:51.207Z,5.07
2022-08-20T12:37:23.126Z,4.87
2022-08-20T12:39:53.643Z,7.40
2022-08-20T12:42:24.564Z,5.67
2022-08-20T12:44:52.924Z,7.87
2022-08-20T12:47:28.099Z,8.40
2022-08-20T12:49:56.657Z,6.60
2022-08-20T12:52:30.492Z,6.53
2022-08-20T12:55:02.706Z,6.67
2022-08-20T12:57:44.239Z,5.47
2022-08-20T13:00:35.281Z,18.03
2022-08-20T13:03:08.011Z,6.73
2022-08-20T13:05:43.055Z,7.90
2022-08-20T13:08:14.102Z,7.60
2022-08-20T13:10:47.666Z,6.03
2022-08-20T13:13:26.000Z,4.93
2022-08-20T13:15:56.260Z,4.93
2022-08-20T13:18:28.112Z,5.87
2022-08-20T13:20:57.306Z,5.73
2022-08-20T13:23:29.313Z,6.07
2022-08-20T13:26:00.519Z,5.40
2022-08-20T13:28:29.241Z,5.87
2022-08-20T13:30:57.827Z,6.83
2022-08-20T13:33:28.587Z,7.87
2022-08-20T13:35:57.366Z,6.00
2022-08-20T13:38:32.350Z,6.63
2022-08-20T13:41:03.641Z,6.93
2022-08-20T13:43:35.353Z,5.03
2022-08-20T13:46:16.907Z,5.67
2022-08-20T13:48:49.188Z,6.13
2022-08-20T13:51:18.143Z,8.73
2022-08-20T13:53:47.863Z,8.30
2022-08-20T13:56:19.900Z,8.23
2022-08-20T13:58:53.090Z,10.63
2022-08-20T14:01:24.541Z,5.93
2022-08-20T14:03:56.606Z,8.60
2022-08-20T14:06:31.404Z,7.87
2022-08-20T14:09:02.659Z,7.40
2022-08-20T14:11:32.207Z,6.50
2022-08-20T14:14:05.711Z,8.07
2022-08-20T14:16:36.359Z,11.40
2022-08-20T14:19:07.071Z,6.97
2022-08-20T14:21:38.671Z,8.00
2022-08-20T14:26:56.237Z,8.73
2022-08-20T14:29:26.680Z,9.50
2022-08-20T14:31:59.663Z,8.13
2022-08-20T14:34:29.636Z,6.70
2022-08-20T14:37:00.520Z,6.70
2022-08-20T14:39:29.684Z,5.83
2022-08-20T14:41:58.000Z,6.80
2022-08-20T14:44:40.896Z,6.80
2022-08-20T14:47:23.409Z,7.73
2022-08-20T14:49:53.591Z,7.20
2022-08-20T14:52:34.501Z,7.53
2022-08-20T14:55:07.853Z,5.83
2022-08-20T14:57:40.228Z,7.07
2022-08-20T15:00:16.598Z,7.70
2022-08-20T15:02:47.264Z,8.10
2022-08-20T15:05:19.270Z,5.90
2022-08-20T15:07:51.937Z,7.23
2022-08-20T15:10:29.741Z,6.80
2022-08-20T15:12:58.587Z,9.10
2022-08-20T15:15:29.730Z,6.90
2022-08-20T15:18:02.106Z,5.87
2022-08-20T15:20:34.177Z,8.83
2022-08-20T15:23:09.530Z,6.00
2022-08-20T15:25:40.603Z,7.73
2022-08-20T15:28:13.420Z,6.27
2022-08-20T15:30:46.795Z,8.13
2022-08-20T15:33:16.984Z,4.50
2022-08-20T15:35:47.795Z,6.20
2022-08-20T15:38:16.581Z,7.60
2022-08-20T15:40:53.587Z,9.67
2022-08-20T15:43:23.502Z,6.43
2022-08-20T15:45:50.917Z,7.10
2022-08-20T15:48:21.658Z,5.37
2022-08-20T15:50:55.627Z,6.13
2022-08-20T15:53:41.935Z,7.47
2022-08-20T15:56:18.927Z,8.40
2022-08-20T15:59:07.513Z,7.03
2022-08-20T16:01:50.134Z,7.83
2022-08-20T16:04:52.651Z,6.83
2022-08-20T16:07:37.176Z,8.13
2022-08-20T16:10:16.750Z,6.13
2022-08-20T16:12:51.395Z,7.17
2022-08-20T16:15:27.293Z,9.83
2022-08-20T16:18:22.027Z,7.77
2022-08-20T16:20:54.487Z,7.50
2022-08-20T16:23:31.605Z,8.17
2022-08-20T16:26:19.822Z,6.93
2022-08-20T16:29:11.448Z,9.40
2022-08-20T16:31:49.989Z,7.90
2022-08-20T16:34:33.173Z,6.87
2022-08-20T16:37:07.724Z,5.97
2022-08-20T16:39:43.792Z,8.33
2022-08-20T16:42:17.244Z,9.00
2022-08-20T16:44:51.674Z,6.67
2022-08-20T16:50:14.301Z,7.40
2022-08-20T16:52:47.710Z,6.13
2022-08-20T16:55:16.622Z,7.20
2022-08-20T16:57:51.476Z,8.27
2022-08-20T17:00:45.446Z,6.43
2022-08-20T17:03:33.509Z,5.33
2022-08-20T17:06:28.948Z,6.20
2022-08-20T17:09:08.650Z,7.77
2022-08-20T17:11:40.132Z,8.70
2022-08-20T17:14:15.500Z,6.17
2022-08-20T17:16:47.294Z,4.23
2022-08-20T17:19:20.294Z,5.10
2022-08-20T17:21:50.533Z,7.27
2022-08-20T17:24:27.596Z,9.33
2022-08-20T17:27:13.912Z,7.07
2022-08-20T17:30:05.720Z,7.10
2022-08-20T17:32:37.972Z,5.17
2022-08-20T17:35:10.568Z,8.40
2022-08-20T17:37:42.845Z,4.47
2022-08-20T17:40:20.917Z,4.87
2022-08-20T17:43:01.600Z,3.10
2022-08-20T17:45:37.356Z,6.27
2022-08-20T17:48:18.747Z,6.40
2022-08-20T17:50:51.053Z,5.13
2022-08-20T17:53:27.366Z,6.43
2022-08-20T17:56:00.879Z,4.70
2022-08-20T17:58:55.053Z,6.53
2022-08-20T18:01:27.106Z,6.07
2022-08-20T18:03:56.755Z,3.67
2022-08-20T18:06:45.602Z,4.37
2022-08-20T18:09:34.386Z,6.13
2022-08-20T18:12:34.241Z,3.90
2022-08-20T18:15:24.668Z,4.03
2022-08-20T18:18:07.460Z,2.57
2022-08-20T18:20:57.113Z,3.90
2022-08-20T18:23:28.867Z,4.13
2022-08-20T18:26:22.092Z,3.67
2022-08-20T18:28:58.538Z,3.73
2022-08-20T18:31:31.087Z,2.83
2022-08-20T18:36:56.880Z,9.43
2022-08-20T18:39:28.839Z,5.53
2022-08-20T18:42:05.031Z,5.83
2022-08-20T18:44:41.767Z,7.33
2022-08-20T18:47:37.213Z,5.83
2022-08-20T18:53:10.798Z,5.60
2022-08-20T18:56:08.174Z,5.67
2022-08-20T18:58:56.578Z,3.67
2022-08-20T19:01:26.438Z,3.87
2022-08-20T19:04:08.402Z,4.73
2022-08-20T19:06:44.214Z,5.30
2022-08-20T19:09:20.083Z,5.40
2022-08-20T19:12:06.343Z,4.37
2022-08-20T19:14:37.903Z,4.90
2022-08-20T19:17:13.783Z,6.60
2022-08-20T19:19:44.672Z,4.93
2022-08-20T19:22:17.862Z,3.13
2022-08-20T19:24:49.039Z,5.40
2022-08-20T19:27:23.147Z,4.07
2022-08-20T19:29:57.121Z,3.37
2022-08-20T19:32:50.898Z,4.70
2022-08-20T19:35:24.232Z,4.20
2022-08-20T19:37:55.667Z,5.90
2022-08-20T19:40:44.326Z,3.63
2022-08-20T19:43:20.358Z,5.30
2022-08-20T19:45:57.616Z,4.57
2022-08-20T19:51:55.413Z,4.90
2022-08-20T19:54:31.082Z,6.20
2022-08-20T19:57:11.647Z,6.50
2022-08-20T19:59:54.364Z,6.53
2022-08-20T20:02:26.267Z,8.43
2022-08-20T20:04:58.088Z,6.17
2022-08-20T20:07:44.430Z,6.27
2022-08-20T20:10:29.371Z,6.67
2022-08-20T20:13:11.039Z,7.10
2022-08-20T20:15:42.735Z,6.33
2022-08-20T20:18:15.282Z,5.10
2022-08-20T20:20:57.606Z,5.93
2022-08-20T20:23:45.833Z,8.23
2022-08-20T20:26:34.347Z,7.17
2022-08-20T20:29:30.641Z,6.43
2022-08-20T20:32:01.934Z,5.43
2022-08-20T20:34:34.775Z,5.50
2022-08-20T20:37:34.745Z,5.23
2022-08-20T20:40:25.420Z,5.90
2022-08-20T20:43:15.244Z,6.33
2022-08-20T20:45:45.629Z,5.30
2022-08-20T20:48:32.888Z,4.20
2022-08-20T20:51:13.974Z,3.60
2022-08-20T20:53:53.166Z,6.27
2022-08-20T20:56:49.503Z,4.27
2022-08-20T20:59:23.373Z,6.30
2022-08-20T21:01:58.838Z,3.43
2022-08-20T21:04:31.082Z,3.37
2022-08-20T21:07:08.850Z,4.03
2022-08-20T21:09:39.508Z,4.47
2022-08-20T21:12:10.901Z,3.07
2022-08-20T21:14:44.129Z,6.93
2022-08-20T21:17:19.332Z,5.13
2022-08-20T21:19:53.285Z,4.57
2022-08-20T21:22:21.556Z,4.23
2022-08-20T21:24:52.804Z,4.57
2022-08-20T21:27:27.798Z,5.60
2022-08-20T21:29:57.450Z,5.73
2022-08-20T21:32:29.029Z,3.20
2022-08-20T21:34:56.360Z,4.63
2022-08-20T21:37:28.499Z,4.40
2022-08-20T21:39:57.545Z,3.90
2022-08-20T21:42:29.249Z,3.80
2022-08-20T21:45:03.675Z,3.60
2022-08-20T21:47:35.416Z,5.63
2022-08-20T21:50:08.646Z,4.67
2022-08-20T21:52:38.105Z,5.17
2022-08-20T21:55:17.686Z,3.50
2022-08-20T21:57:49.419Z,4.63
2022-08-20T22:00:41.087Z,5.27
2022-08-20T22:03:14.176Z,3.30
2022-08-20T22:05:46.835Z,4.13
2022-08-20T22:08:18.258Z,5.30
2022-08-20T22:10:46.865Z,3.53
2022-08-20T22:13:17.882Z,4.17
2022-08-20T22:15:47.860Z,3.47
2022-08-20T22:18:20.752Z,3.93
2022-08-20T22:20:50.630Z,3.97
2022-08-20T22:23:23.058Z,3.53
2022-08-20T22:25:53.177Z,4.07
2022-08-20T22:28:24.558Z,3.77
2022-08-20T22:30:57.455Z,4.10
2022-08-20T22:33:27.670Z,3.57
2022-08-20T22:35:59.996Z,5.10
2022-08-20T22:38:32.329Z,4.47
2022-08-20T22:41:03.415Z,4.37
2022-08-20T22:43:45.047Z,4.27
2022-08-20T22:46:35.864Z,3.53
2022-08-20T22:49:05.403Z,4.87
2022-08-20T22:51:38.888Z,6.10
2022-08-20T22:54:13.525Z,5.10
2022-08-20T22:56:44.214Z,4.13
2022-08-20T22:59:21.433Z,4.20
2022-08-20T23:01:59.895Z,4.33
2022-08-20T23:04:34.778Z,5.50
2022-08-20T23:07:09.764Z,3.13
2022-08-20T23:09:43.876Z,5.27
2022-08-20T23:12:12.298Z,4.50
2022-08-20T23:14:44.240Z,3.43
2022-08-20T23:17:21.116Z,4.20
2022-08-20T23:19:52.855Z,4.80
2022-08-20T23:22:24.399Z,5.27
2022-08-20T23:25:19.218Z,4.43
2022-08-20T23:27:50.117Z,4.63
2022-08-20T23:30:22.919Z,3.87
2022-08-20T23:35:34.209Z,5.20
2022-08-20T23:40:55.755Z,3.50
2022-08-20T23:43:27.747Z,3.90
2022-08-20T23:46:02.169Z,3.67
2022-08-20T23:48:32.039Z,3.80
2022-08-20T23:51:05.152Z,3.00
2022-08-20T23:53:39.801Z,3.53
2022-08-20T23:56:12.022Z,3.00
2022-08-20T23:58:43.327Z,3.13
